Flugplatz Altenstadt Army Airfield

Bericht für ETHA

vom 22.02. um 21:20 UTC

Wind 5 kt aus 250°

Sichtweite 9700 m

Temperatur 8°C

Taupunkt 5°C

Luftfeuchtigkeit 81%

Luftdruck 995 hPa

ETHA 222120Z AUTO 25005KT 9999 // ////// 08/05 Q0995 ///

Prognose für ETHA

vom 22.02. um 17:00 UTC

Zwischen 18:00 UTC und 03:00 UTC

Wind 7 kt aus 250°

Sichtweite 9700 m

schwacher Regen

gering bewölkt in 3000 ft

aufgebrochene Bewölkung in 5000 ft

bedeckt in 10000 ft

TAF ETHA 221700Z 2218/2303 25007KT 9999 -RA FEW030 BKN050 OVC100
Impressum